sensor_id;sensor_type;location;lat;lon;timestamp;pressure;altitude;pressure_sealevel;temperature;humidity
23170;BME280;11753;43.144;24.714;2023-06-05T00:00:33;100137.50;;;15.04;100.00
23170;BME280;11753;43.144;24.714;2023-06-05T00:01:34;100132.22;;;15.04;100.00
23170;BME280;11753;43.144;24.714;2023-06-05T00:02:36;100130.56;;;15.03;100.00
23170;BME280;11753;43.144;24.714;2023-06-05T00:03:37;100139.53;;;15.02;100.00
23170;BME280;11753;43.144;24.714;2023-06-05T00:04:39;100134.69;;;15.05;100.00
23170;BME280;11753;43.144;24.714;2023-06-05T00:05:41;100126.91;;;15.04;100.00
23170;BME280;11753;43.144;24.714;2023-06-05T00:06:42;100124.91;;;15.06;100.00
23170;BME280;11753;43.144;24.714;2023-06-05T00:07:44;100122.94;;;15.08;100.00
23170;BME280;11753;43.144;24.714;2023-06-05T00:08:45;100127.25;;;15.09;100.00
23170;BME280;11753;43.144;24.714;2023-06-05T00:09:45;100119.94;;;15.11;100.00
23170;BME280;11753;43.144;24.714;2023-06-05T00:10:46;100116.94;;;15.14;100.00
23170;BME280;11753;43.144;24.714;2023-06-05T00:11:47;100121.56;;;15.20;100.00
23170;BME280;11753;43.144;24.714;2023-06-05T00:12:48;100125.19;;;15.19;100.00
23170;BME280;11753;43.144;24.714;2023-06-05T00:13:49;100114.94;;;15.16;100.00
23170;BME280;11753;43.144;24.714;2023-06-05T00:14:49;100108.16;;;15.13;100.00
23170;BME280;11753;43.144;24.714;2023-06-05T00:15:51;100116.59;;;15.17;100.00
23170;BME280;11753;43.144;24.714;2023-06-05T00:16:53;100121.06;;;15.17;100.00
23170;BME280;11753;43.144;24.714;2023-06-05T00:17:56;100125.88;;;15.13;100.00
23170;BME280;11753;43.144;24.714;2023-06-05T00:18:57;100127.22;;;15.17;100.00
23170;BME280;11753;43.144;24.714;2023-06-05T00:19:58;100127.22;;;15.17;100.00
23170;BME280;11753;43.144;24.714;2023-06-05T00:20:59;100120.94;;;15.10;100.00
23170;BME280;11753;43.144;24.714;2023-06-05T00:22:00;100120.09;;;15.09;100.00
23170;BME280;11753;43.144;24.714;2023-06-05T00:23:03;100121.25;;;15.07;100.00
23170;BME280;11753;43.144;24.714;2023-06-05T00:24:05;100115.69;;;14.94;100.00
23170;BME280;11753;43.144;24.714;2023-06-05T00:25:06;100114.97;;;15.00;100.00
23170;BME280;11753;43.144;24.714;2023-06-05T00:26:07;100128.56;;;15.05;100.00
23170;BME280;11753;43.144;24.714;2023-06-05T00:27:08;100129.22;;;14.99;100.00
23170;BME280;11753;43.144;24.714;2023-06-05T00:28:09;100134.22;;;15.02;100.00
23170;BME280;11753;43.144;24.714;2023-06-05T00:29:10;100129.56;;;15.04;100.00
23170;BME280;11753;43.144;24.714;2023-06-05T00:30:11;100124.59;;;15.01;100.00
23170;BME280;11753;43.144;24.714;2023-06-05T00:31:12;100118.78;;;15.05;100.00
23170;BME280;11753;43.144;24.714;2023-06-05T00:32:18;100127.25;;;15.09;100.00
23170;BME280;11753;43.144;24.714;2023-06-05T00:33:20;100122.25;;;15.06;100.00
23170;BME280;11753;43.144;24.714;2023-06-05T00:34:20;100121.09;;;15.08;100.00
23170;BME280;11753;43.144;24.714;2023-06-05T00:35:22;100122.94;;;15.08;100.00
23170;BME280;11753;43.144;24.714;2023-06-05T00:36:23;100121.56;;;15.12;100.00
23170;BME280;11753;43.144;24.714;2023-06-05T00:37:24;100124.09;;;15.05;100.00
23170;BME280;11753;43.144;24.714;2023-06-05T00:38:25;100127.25;;;15.09;100.00
23170;BME280;11753;43.144;24.714;2023-06-05T00:39:26;100127.41;;;15.07;100.00
23170;BME280;11753;43.144;24.714;2023-06-05T00:40:27;100129.88;;;15.09;100.00
23170;BME280;11753;43.144;24.714;2023-06-05T00:41:28;100132.72;;;15.07;100.00
23170;BME280;11753;43.144;24.714;2023-06-05T00:42:28;100127.25;;;15.01;100.00
23170;BME280;11753;43.144;24.714;2023-06-05T00:43:29;100127.94;;;14.95;100.00
23170;BME280;11753;43.144;24.714;2023-06-05T00:44:31;100126.28;;;14.94;100.00
23170;BME280;11753;43.144;24.714;2023-06-05T00:45:33;100126.28;;;14.94;100.00
23170;BME280;11753;43.144;24.714;2023-06-05T00:46:34;100129.59;;;14.96;100.00
23170;BME280;11753;43.144;24.714;2023-06-05T00:47:35;100126.28;;;14.94;100.00
23170;BME280;11753;43.144;24.714;2023-06-05T00:48:36;100119.97;;;14.95;100.00
23170;BME280;11753;43.144;24.714;2023-06-05T00:49:38;100118.66;;;14.91;100.00
23170;BME280;11753;43.144;24.714;2023-06-05T00:50:39;100117.00;;;14.90;100.00
23170;BME280;11753;43.144;24.714;2023-06-05T00:51:41;100118.16;;;14.95;100.00
23170;BME280;11753;43.144;24.714;2023-06-05T00:52:46;100119.16;;;14.94;100.00
23170;BME280;11753;43.144;24.714;2023-06-05T00:53:47;100121.66;;;14.79;100.00
23170;BME280;11753;43.144;24.714;2023-06-05T00:54:48;100124.00;;;14.66;100.00
23170;BME280;11753;43.144;24.714;2023-06-05T00:55:49;100125.31;;;14.70;100.00
23170;BME280;11753;43.144;24.714;2023-06-05T00:56:50;100126.31;;;14.69;100.00
23170;BME280;11753;43.144;24.714;2023-06-05T00:57:54;100118.34;;;14.69;100.00
23170;BME280;11753;43.144;24.714;2023-06-05T00:58:55;100118.34;;;14.69;100.00
23170;BME280;11753;43.144;24.714;2023-06-05T00:59:59;100114.38;;;14.73;100.00
23170;BME280;11753;43.144;24.714;2023-06-05T01:01:01;100117.38;;;14.62;100.00
23170;BME280;11753;43.144;24.714;2023-06-05T01:02:04;100112.75;;;14.56;100.00
23170;BME280;11753;43.144;24.714;2023-06-05T01:03:07;100115.06;;;14.59;100.00
23170;BME280;11753;43.144;24.714;2023-06-05T01:04:09;100118.03;;;14.64;100.00
23170;BME280;11753;43.144;24.714;2023-06-05T01:05:10;100120.00;;;14.70;100.00
23170;BME280;11753;43.144;24.714;2023-06-05T01:06:10;100118.69;;;14.66;100.00
23170;BME280;11753;43.144;24.714;2023-06-05T01:07:12;100127.66;;;14.65;100.00
23170;BME280;11753;43.144;24.714;2023-06-05T01:08:14;100124.31;;;14.63;100.00
23170;BME280;11753;43.144;24.714;2023-06-05T01:09:17;100108.09;;;14.50;100.00
23170;BME280;11753;43.144;24.714;2023-06-05T01:10:19;100119.69;;;14.57;100.00
23170;BME280;11753;43.144;24.714;2023-06-05T01:13:22;100116.06;;;14.58;100.00
23170;BME280;11753;43.144;24.714;2023-06-05T01:14:35;100120.66;;;14.64;100.00
23170;BME280;11753;43.144;24.714;2023-06-05T01:15:37;100113.41;;;14.66;100.00
23170;BME280;11753;43.144;24.714;2023-06-05T01:16:39;100111.41;;;14.60;100.00
23170;BME280;11753;43.144;24.714;2023-06-05T01:17:42;100117.06;;;14.65;100.00
23170;BME280;11753;43.144;24.714;2023-06-05T01:18:48;100113.38;;;14.74;100.00
23170;BME280;11753;43.144;24.714;2023-06-05T01:19:49;100108.25;;;14.73;100.00
23170;BME280;11753;43.144;24.714;2023-06-05T01:20:50;100111.91;;;14.72;100.00
23170;BME280;11753;43.144;24.714;2023-06-05T01:21:51;100109.91;;;14.74;100.00
23170;BME280;11753;43.144;24.714;2023-06-05T01:22:52;100110.06;;;14.80;100.00
23170;BME280;11753;43.144;24.714;2023-06-05T01:23:53;100113.38;;;14.82;100.00
23170;BME280;11753;43.144;24.714;2023-06-05T01:24:54;100114.38;;;14.81;100.00
23170;BME280;11753;43.144;24.714;2023-06-05T01:25:59;100114.03;;;14.84;100.00
23170;BME280;11753;43.144;24.714;2023-06-05T01:27:21;100119.19;;;14.86;100.00
23170;BME280;11753;43.144;24.714;2023-06-05T01:28:29;100114.03;;;14.84;100.00
23170;BME280;11753;43.144;24.714;2023-06-05T01:30:27;100114.34;;;14.90;100.00
23170;BME280;11753;43.144;24.714;2023-06-05T01:31:09;100099.44;;;14.89;100.00
23170;BME280;11753;43.144;24.714;2023-06-05T01:32:21;100111.69;;;14.90;100.00
23170;BME280;11753;43.144;24.714;2023-06-05T01:33:30;100111.06;;;14.88;100.00
23170;BME280;11753;43.144;24.714;2023-06-05T01:34:36;100113.19;;;14.92;100.00
23170;BME280;11753;43.144;24.714;2023-06-05T01:35:37;100111.53;;;14.91;100.00
23170;BME280;11753;43.144;24.714;2023-06-05T01:36:40;100108.22;;;14.89;100.00
23170;BME280;11753;43.144;24.714;2023-06-05T01:37:42;100104.41;;;14.83;100.00
23170;BME280;11753;43.144;24.714;2023-06-05T01:38:48;100108.56;;;14.86;100.00
23170;BME280;11753;43.144;24.714;2023-06-05T01:39:50;100102.28;;;14.87;100.00
23170;BME280;11753;43.144;24.714;2023-06-05T01:40:52;100102.09;;;14.89;100.00
23170;BME280;11753;43.144;24.714;2023-06-05T01:41:55;100109.56;;;14.93;100.00
23170;BME280;11753;43.144;24.714;2023-06-05T01:42:59;100112.34;;;14.92;100.00
23170;BME280;11753;43.144;24.714;2023-06-05T01:44:01;100110.38;;;14.94;100.00
23170;BME280;11753;43.144;24.714;2023-06-05T01:45:04;100109.03;;;14.98;100.00
23170;BME280;11753;43.144;24.714;2023-06-05T01:46:06;100109.66;;;15.00;100.00
23170;BME280;11753;43.144;24.714;2023-06-05T01:47:08;100108.84;;;14.99;100.00
23170;BME280;11753;43.144;24.714;2023-06-05T01:48:09;100119.31;;;14.93;100.00
23170;BME280;11753;43.144;24.714;2023-06-05T01:49:11;100110.53;;;15.00;100.00
23170;BME280;11753;43.144;24.714;2023-06-05T01:50:11;100108.34;;;15.04;100.00
23170;BME280;11753;43.144;24.714;2023-06-05T01:51:15;100110.69;;;14.99;100.00
23170;BME280;11753;43.144;24.714;2023-06-05T01:52:15;100108.22;;;14.89;100.00
23170;BME280;11753;43.144;24.714;2023-06-05T01:53:16;100112.19;;;14.93;100.00
23170;BME280;11753;43.144;24.714;2023-06-05T01:54:18;100108.69;;;14.93;100.00
23170;BME280;11753;43.144;24.714;2023-06-05T01:55:23;100109.56;;;14.93;100.00
23170;BME280;11753;43.144;24.714;2023-06-05T01:56:25;100101.75;;;14.92;100.00
23170;BME280;11753;43.144;24.714;2023-06-05T01:57:29;100102.25;;;14.95;100.00
23170;BME280;11753;43.144;24.714;2023-06-05T01:58:30;100104.72;;;14.97;100.00
23170;BME280;11753;43.144;24.714;2023-06-05T01:59:34;100097.78;;;14.96;100.00
23170;BME280;11753;43.144;24.714;2023-06-05T02:00:35;100105.34;;;15.07;100.00
23170;BME280;11753;43.144;24.714;2023-06-05T02:01:36;100101.72;;;15.00;100.00
23170;BME280;11753;43.144;24.714;2023-06-05T02:02:47;100101.88;;;15.06;100.00
23170;BME280;11753;43.144;24.714;2023-06-05T02:03:49;100099.41;;;15.05;100.00
23170;BME280;11753;43.144;24.714;2023-06-05T02:04:50;100096.06;;;15.11;100.00
23170;BME280;11753;43.144;24.714;2023-06-05T02:05:54;100089.44;;;15.15;100.00
23170;BME280;11753;43.144;24.714;2023-06-05T02:06:55;100095.56;;;15.16;100.00
23170;BME280;11753;43.144;24.714;2023-06-05T02:07:58;100084.78;;;15.17;100.00
23170;BME280;11753;43.144;24.714;2023-06-05T02:09:05;100082.44;;;15.14;100.00
23170;BME280;11753;43.144;24.714;2023-06-05T02:10:08;100086.78;;;15.15;100.00
23170;BME280;11753;43.144;24.714;2023-06-05T02:11:09;100090.91;;;15.18;100.00
23170;BME280;11753;43.144;24.714;2023-06-05T02:12:12;100089.72;;;15.20;100.00
23170;BME280;11753;43.144;24.714;2023-06-05T02:13:15;100089.72;;;15.20;100.00
23170;BME280;11753;43.144;24.714;2023-06-05T02:14:16;100088.44;;;15.16;100.00
23170;BME280;11753;43.144;24.714;2023-06-05T02:15:16;100097.22;;;15.17;100.00
23170;BME280;11753;43.144;24.714;2023-06-05T02:16:17;100088.63;;;15.14;100.00
23170;BME280;11753;43.144;24.714;2023-06-05T02:17:17;100092.91;;;15.16;100.00
23170;BME280;11753;43.144;24.714;2023-06-05T02:18:18;100090.09;;;15.17;100.00
23170;BME280;11753;43.144;24.714;2023-06-05T02:19:19;100088.91;;;15.20;100.00
23170;BME280;11753;43.144;24.714;2023-06-05T02:20:24;100095.03;;;15.20;100.00
23170;BME280;11753;43.144;24.714;2023-06-05T02:21:25;100087.44;;;15.17;100.00
23170;BME280;11753;43.144;24.714;2023-06-05T02:22:26;100086.75;;;15.23;100.00
23170;BME280;11753;43.144;24.714;2023-06-05T02:23:27;100088.13;;;15.11;100.00
23170;BME280;11753;43.144;24.714;2023-06-05T02:24:27;100092.75;;;15.17;100.00
23170;BME280;11753;43.144;24.714;2023-06-05T02:25:28;100089.09;;;15.18;100.00
23170;BME280;11753;43.144;24.714;2023-06-05T02:26:28;100084.44;;;15.20;100.00
23170;BME280;11753;43.144;24.714;2023-06-05T02:27:29;100095.72;;;15.22;100.00
23170;BME280;11753;43.144;24.714;2023-06-05T02:28:31;100087.41;;;15.25;100.00
23170;BME280;11753;43.144;24.714;2023-06-05T02:29:36;100082.44;;;15.22;100.00
23170;BME280;11753;43.144;24.714;2023-06-05T02:30:42;100090.88;;;15.26;100.00
23170;BME280;11753;43.144;24.714;2023-06-05T02:31:46;100087.91;;;15.29;100.00
23170;BME280;11753;43.144;24.714;2023-06-05T02:32:46;100085.88;;;15.31;100.00
23170;BME280;11753;43.144;24.714;2023-06-05T02:33:49;100090.00;;;15.33;100.00
23170;BME280;11753;43.144;24.714;2023-06-05T02:34:53;100091.00;;;15.32;100.00
23170;BME280;11753;43.144;24.714;2023-06-05T02:35:57;100091.19;;;15.31;100.00
23170;BME280;11753;43.144;24.714;2023-06-05T02:36:59;100077.88;;;15.39;100.00
23170;BME280;11753;43.144;24.714;2023-06-05T02:38:02;100084.06;;;15.31;100.00
23170;BME280;11753;43.144;24.714;2023-06-05T02:39:16;100084.19;;;15.38;100.00
23170;BME280;11753;43.144;24.714;2023-06-05T02:40:17;100085.19;;;15.37;100.00
23170;BME280;11753;43.144;24.714;2023-06-05T02:41:25;100090.97;;;15.40;100.00
23170;BME280;11753;43.144;24.714;2023-06-05T02:42:34;100090.66;;;15.44;100.00
23170;BME280;11753;43.144;24.714;2023-06-05T02:43:37;100088.63;;;15.46;100.00
23170;BME280;11753;43.144;24.714;2023-06-05T02:44:38;100085.63;;;15.49;100.00
23170;BME280;11753;43.144;24.714;2023-06-05T02:45:39;100089.91;;;15.50;100.00
23170;BME280;11753;43.144;24.714;2023-06-05T02:46:39;100082.16;;;15.48;100.00
23170;BME280;11753;43.144;24.714;2023-06-05T02:47:40;100091.25;;;15.54;100.00
23170;BME280;11753;43.144;24.714;2023-06-05T02:48:41;100087.41;;;15.56;100.00
23170;BME280;11753;43.144;24.714;2023-06-05T02:49:41;100084.25;;;15.61;100.00
23170;BME280;11753;43.144;24.714;2023-06-05T02:50:42;100087.06;;;15.59;100.00
23170;BME280;11753;43.144;24.714;2023-06-05T02:51:48;100086.91;;;15.61;100.00
23170;BME280;11753;43.144;24.714;2023-06-05T02:52:50;100086.25;;;15.59;100.00
23170;BME280;11753;43.144;24.714;2023-06-05T02:53:56;100086.91;;;15.61;100.00
23170;BME280;11753;43.144;24.714;2023-06-05T02:55:04;100093.88;;;15.62;100.00
23170;BME280;11753;43.144;24.714;2023-06-05T02:56:06;100090.06;;;15.64;100.00
23170;BME280;11753;43.144;24.714;2023-06-05T02:57:08;100081.09;;;15.65;100.00
23170;BME280;11753;43.144;24.714;2023-06-05T02:58:23;100086.69;;;15.71;100.00
23170;BME280;11753;43.144;24.714;2023-06-05T02:59:23;100093.78;;;15.78;100.00
23170;BME280;11753;43.144;24.714;2023-06-05T03:00:25;100089.47;;;15.77;100.00
23170;BME280;11753;43.144;24.714;2023-06-05T03:01:27;100095.22;;;15.89;100.00
23170;BME280;11753;43.144;24.714;2023-06-05T03:02:34;100100.78;;;15.79;100.00
23170;BME280;11753;43.144;24.714;2023-06-05T03:03:37;100089.84;;;15.74;100.00
23170;BME280;11753;43.144;24.714;2023-06-05T03:04:38;100094.13;;;15.75;100.00
23170;BME280;11753;43.144;24.714;2023-06-05T03:05:40;100094.13;;;15.75;100.00
23170;BME280;11753;43.144;24.714;2023-06-05T03:06:41;100094.28;;;15.82;100.00
23170;BME280;11753;43.144;24.714;2023-06-05T03:07:43;100088.13;;;15.81;100.00
23170;BME280;11753;43.144;24.714;2023-06-05T03:08:44;100096.75;;;15.83;100.00
23170;BME280;11753;43.144;24.714;2023-06-05T03:09:48;100079.34;;;15.81;100.00
23170;BME280;11753;43.144;24.714;2023-06-05T03:10:52;100083.78;;;15.88;100.00
23170;BME280;11753;43.144;24.714;2023-06-05T03:11:52;100084.41;;;15.90;100.00
23170;BME280;11753;43.144;24.714;2023-06-05T03:12:53;100080.22;;;15.96;100.00
23170;BME280;11753;43.144;24.714;2023-06-05T03:13:55;100076.13;;;15.93;100.00
23170;BME280;11753;43.144;24.714;2023-06-05T03:14:55;100077.41;;;15.98;100.00
23170;BME280;11753;43.144;24.714;2023-06-05T03:15:59;100075.38;;;16.00;100.00
23170;BME280;11753;43.144;24.714;2023-06-05T03:17:03;100081.00;;;16.05;100.00
23170;BME280;11753;43.144;24.714;2023-06-05T03:18:04;100080.34;;;16.03;100.00
23170;BME280;11753;43.144;24.714;2023-06-05T03:19:06;100079.16;;;16.05;100.00
23170;BME280;11753;43.144;24.714;2023-06-05T03:20:08;100071.38;;;16.04;100.00
23170;BME280;11753;43.144;24.714;2023-06-05T03:21:11;100076.31;;;16.07;100.00
23170;BME280;11753;43.144;24.714;2023-06-05T03:22:12;100078.00;;;16.08;100.00
23170;BME280;11753;43.144;24.714;2023-06-05T03:23:13;100073.34;;;16.10;100.00
23170;BME280;11753;43.144;24.714;2023-06-05T03:24:14;100075.63;;;16.13;100.00
23170;BME280;11753;43.144;24.714;2023-06-05T03:25:16;100072.50;;;16.09;100.00
23170;BME280;11753;43.144;24.714;2023-06-05T03:26:18;100072.22;;;16.04;100.00
23170;BME280;11753;43.144;24.714;2023-06-05T03:27:25;100075.63;;;16.13;100.00
23170;BME280;11753;43.144;24.714;2023-06-05T03:28:29;100076.00;;;16.10;100.00
23170;BME280;11753;43.144;24.714;2023-06-05T03:29:33;100078.03;;;16.00;100.00
23170;BME280;11753;43.144;24.714;2023-06-05T03:30:34;100072.72;;;16.00;100.00
23170;BME280;11753;43.144;24.714;2023-06-05T03:31:37;100070.69;;;16.10;100.00
23170;BME280;11753;43.144;24.714;2023-06-05T03:32:37;100068.53;;;16.05;100.00
23170;BME280;11753;43.144;24.714;2023-06-05T03:33:38;100071.75;;;16.01;100.00
23170;BME280;11753;43.144;24.714;2023-06-05T03:34:39;100072.78;;;15.91;100.00
23170;BME280;11753;43.144;24.714;2023-06-05T03:35:43;100071.78;;;15.92;100.00
23170;BME280;11753;43.144;24.714;2023-06-05T03:36:46;100073.50;;;15.85;100.00
23170;BME280;11753;43.144;24.714;2023-06-05T03:37:49;100065.38;;;15.87;100.00
23170;BME280;11753;43.144;24.714;2023-06-05T03:38:50;100076.44;;;15.90;100.00
23170;BME280;11753;43.144;24.714;2023-06-05T03:39:52;100062.53;;;15.88;100.00
23170;BME280;11753;43.144;24.714;2023-06-05T03:40:56;100077.06;;;16.01;100.00
23170;BME280;11753;43.144;24.714;2023-06-05T03:41:56;100070.06;;;16.00;100.00
23170;BME280;11753;43.144;24.714;2023-06-05T03:42:59;100081.06;;;15.96;100.00
23170;BME280;11753;43.144;24.714;2023-06-05T03:44:00;100061.28;;;15.99;100.00
23170;BME280;11753;43.144;24.714;2023-06-05T03:45:01;100067.78;;;15.96;100.00
23170;BME280;11753;43.144;24.714;2023-06-05T03:46:02;100069.09;;;16.01;100.00
23170;BME280;11753;43.144;24.714;2023-06-05T03:47:04;100069.38;;;16.06;100.00
23170;BME280;11753;43.144;24.714;2023-06-05T03:48:06;100067.00;;;16.11;100.00
23170;BME280;11753;43.144;24.714;2023-06-05T03:49:07;100067.00;;;16.11;100.00
23170;BME280;11753;43.144;24.714;2023-06-05T03:50:11;100069.78;;;16.17;100.00
23170;BME280;11753;43.144;24.714;2023-06-05T03:51:12;100070.03;;;16.08;100.00
23170;BME280;11753;43.144;24.714;2023-06-05T03:52:14;100076.28;;;16.15;100.00
23170;BME280;11753;43.144;24.714;2023-06-05T03:53:15;100079.09;;;16.13;100.00
23170;BME280;11753;43.144;24.714;2023-06-05T03:54:16;100067.84;;;16.11;100.00
23170;BME280;11753;43.144;24.714;2023-06-05T03:55:17;100082.25;;;16.17;100.00
23170;BME280;11753;43.144;24.714;2023-06-05T03:56:18;100077.97;;;16.31;100.00
23170;BME280;11753;43.144;24.714;2023-06-05T03:57:20;100082.22;;;16.40;100.00
23170;BME280;11753;43.144;24.714;2023-06-05T03:58:20;100075.69;;;16.42;100.00
23170;BME280;11753;43.144;24.714;2023-06-05T03:59:22;100073.50;;;16.31;100.00
23170;BME280;11753;43.144;24.714;2023-06-05T04:00:24;100071.78;;;16.38;100.00
23170;BME280;11753;43.144;24.714;2023-06-05T04:01:25;100064.13;;;16.35;100.00
23170;BME280;11753;43.144;24.714;2023-06-05T04:02:26;100076.91;;;16.40;100.00
23170;BME280;11753;43.144;24.714;2023-06-05T04:03:27;100071.06;;;16.44;100.00
23170;BME280;11753;43.144;24.714;2023-06-05T04:04:29;100063.09;;;16.44;100.00
23170;BME280;11753;43.144;24.714;2023-06-05T04:05:30;100078.31;;;16.50;100.00
23170;BME280;11753;43.144;24.714;2023-06-05T04:06:33;100068.41;;;16.59;100.00
23170;BME280;11753;43.144;24.714;2023-06-05T04:07:35;100076.84;;;16.63;100.00
23170;BME280;11753;43.144;24.714;2023-06-05T04:08:37;100073.84;;;16.66;100.00
23170;BME280;11753;43.144;24.714;2023-06-05T04:09:46;100059.34;;;16.68;100.00
23170;BME280;11753;43.144;24.714;2023-06-05T04:10:48;100068.47;;;16.74;100.00
23170;BME280;11753;43.144;24.714;2023-06-05T04:11:49;100059.00;;;16.71;100.00
23170;BME280;11753;43.144;24.714;2023-06-05T04:12:50;100065.19;;;16.72;100.00
23170;BME280;11753;43.144;24.714;2023-06-05T04:13:51;100069.38;;;16.81;100.00
23170;BME280;11753;43.144;24.714;2023-06-05T04:14:52;100070.03;;;16.83;100.00
23170;BME280;11753;43.144;24.714;2023-06-05T04:15:53;100063.34;;;16.87;100.00
23170;BME280;11753;43.144;24.714;2023-06-05T04:16:55;100066.72;;;16.96;100.00
23170;BME280;11753;43.144;24.714;2023-06-05T04:18:00;100066.34;;;16.99;100.00
23170;BME280;11753;43.144;24.714;2023-06-05T04:19:01;100068.47;;;17.03;100.00
23170;BME280;11753;43.144;24.714;2023-06-05T04:20:04;100066.09;;;17.09;100.00
23170;BME280;11753;43.144;24.714;2023-06-05T04:21:05;100060.09;;;17.06;100.00
23170;BME280;11753;43.144;24.714;2023-06-05T04:22:06;100063.69;;;17.14;100.00
23170;BME280;11753;43.144;24.714;2023-06-05T04:23:08;100055.97;;;17.19;100.00
23170;BME280;11753;43.144;24.714;2023-06-05T04:24:09;100048.81;;;17.19;100.00
23170;BME280;11753;43.144;24.714;2023-06-05T04:25:22;100054.41;;;17.24;100.00
23170;BME280;11753;43.144;24.714;2023-06-05T04:28:29;100053.22;;;17.27;100.00
23170;BME280;11753;43.144;24.714;2023-06-05T04:29:33;100055.25;;;17.25;100.00
23170;BME280;11753;43.144;24.714;2023-06-05T04:30:35;100060.19;;;17.28;100.00
23170;BME280;11753;43.144;24.714;2023-06-05T04:31:36;100052.19;;;17.28;100.00
23170;BME280;11753;43.144;24.714;2023-06-05T04:32:41;100056.16;;;17.32;100.00
23170;BME280;11753;43.144;24.714;2023-06-05T04:33:42;100053.91;;;17.36;100.00
23170;BME280;11753;43.144;24.714;2023-06-05T04:34:43;100053.00;;;17.43;100.00
23170;BME280;11753;43.144;24.714;2023-06-05T04:35:47;100055.09;;;17.48;100.00
23170;BME280;11753;43.144;24.714;2023-06-05T04:36:49;100059.41;;;17.49;100.00
23170;BME280;11753;43.144;24.714;2023-06-05T04:37:52;100058.66;;;17.55;100.00
23170;BME280;11753;43.144;24.714;2023-06-05T04:38:53;100062.06;;;17.49;100.00
23170;BME280;11753;43.144;24.714;2023-06-05T04:39:53;100053.53;;;17.53;100.00
23170;BME280;11753;43.144;24.714;2023-06-05T04:40:55;100067.47;;;17.55;100.00
23170;BME280;11753;43.144;24.714;2023-06-05T04:41:56;100068.56;;;17.61;100.00
23170;BME280;11753;43.144;24.714;2023-06-05T04:42:57;100063.69;;;17.65;100.00
23170;BME280;11753;43.144;24.714;2023-06-05T04:43:59;100068.53;;;17.76;100.00
23170;BME280;11753;43.144;24.714;2023-06-05T04:45:04;100062.19;;;17.77;100.00
23170;BME280;11753;43.144;24.714;2023-06-05T04:46:09;100064.88;;;17.77;100.00
23170;BME280;11753;43.144;24.714;2023-06-05T04:47:10;100068.53;;;17.76;100.00
23170;BME280;11753;43.144;24.714;2023-06-05T04:48:11;100068.34;;;17.77;100.00
23170;BME280;11753;43.144;24.714;2023-06-05T04:49:13;100064.31;;;17.81;100.00
23170;BME280;11753;43.144;24.714;2023-06-05T04:50:26;100072.56;;;17.86;100.00
23170;BME280;11753;43.144;24.714;2023-06-05T04:51:27;100072.44;;;17.95;100.00
23170;BME280;11753;43.144;24.714;2023-06-05T04:52:28;100063.84;;;17.99;100.00
23170;BME280;11753;43.144;24.714;2023-06-05T04:53:30;100077.38;;;17.98;100.00
23170;BME280;11753;43.144;24.714;2023-06-05T04:54:31;100080.34;;;18.09;100.00
23170;BME280;11753;43.144;24.714;2023-06-05T04:55:32;100076.78;;;18.24;100.00
23170;BME280;11753;43.144;24.714;2023-06-05T04:56:33;100080.19;;;18.39;100.00
23170;BME280;11753;43.144;24.714;2023-06-05T04:57:35;100083.59;;;18.54;100.00
23170;BME280;11753;43.144;24.714;2023-06-05T04:58:36;100077.50;;;18.60;100.00
23170;BME280;11753;43.144;24.714;2023-06-05T04:59:38;100081.69;;;18.69;100.00
23170;BME280;11753;43.144;24.714;2023-06-05T05:00:39;100072.13;;;18.82;100.00
23170;BME280;11753;43.144;24.714;2023-06-05T05:01:41;100076.69;;;18.88;100.00
23170;BME280;11753;43.144;24.714;2023-06-05T05:02:42;100084.38;;;19.04;100.00
23170;BME280;11753;43.144;24.714;2023-06-05T05:03:44;100078.03;;;19.12;100.00
23170;BME280;11753;43.144;24.714;2023-06-05T05:04:46;100081.59;;;19.25;100.00
23170;BME280;11753;43.144;24.714;2023-06-05T05:05:47;100079.16;;;19.31;100.00
23170;BME280;11753;43.144;24.714;2023-06-05T05:06:47;100079.16;;;19.31;100.00
23170;BME280;11753;43.144;24.714;2023-06-05T05:07:48;100082.66;;;19.31;100.00
23170;BME280;11753;43.144;24.714;2023-06-05T05:08:49;100078.75;;;19.34;100.00
23170;BME280;11753;43.144;24.714;2023-06-05T05:09:50;100082.06;;;19.42;100.00
23170;BME280;11753;43.144;24.714;2023-06-05T05:10:51;100079.81;;;19.39;100.00
23170;BME280;11753;43.144;24.714;2023-06-05T05:11:52;100074.69;;;19.44;100.00
23170;BME280;11753;43.144;24.714;2023-06-05T05:12:54;100087.00;;;19.39;100.00
23170;BME280;11753;43.144;24.714;2023-06-05T05:13:54;100078.00;;;19.53;100.00
23170;BME280;11753;43.144;24.714;2023-06-05T05:14:55;100075.59;;;19.58;100.00
23170;BME280;11753;43.144;24.714;2023-06-05T05:15:56;100080.94;;;19.58;100.00
23170;BME280;11753;43.144;24.714;2023-06-05T05:16:57;100085.06;;;19.61;100.00
23170;BME280;11753;43.144;24.714;2023-06-05T05:17:58;100088.34;;;19.69;100.00
23170;BME280;11753;43.144;24.714;2023-06-05T05:18:59;100090.44;;;19.74;100.00
23170;BME280;11753;43.144;24.714;2023-06-05T05:20:01;100090.47;;;19.81;100.00
23170;BME280;11753;43.144;24.714;2023-06-05T05:21:04;100092.91;;;19.82;100.00
23170;BME280;11753;43.144;24.714;2023-06-05T05:22:09;100095.56;;;19.69;100.00